Time;durP1;ratioP1;P1;durP2;ratioP2;P2;SDS_P1;SDS_P2;PMS_P1;PMS_P2;Temp;Humidity;BMP_temperature;BMP_pressure;BME280_temperature;BME280_humidity;BME280_pressure;Samples;Min_cycle;Max_cycle;Signal;HPM_P1;HPM_P2
2022/08/20 00:00:36;;;;;;;1.55;0.90;;;20.50;23.30;;;;;;5106454;27;36170;-76
2022/08/20 00:03:06;;;;;;;2.83;0.90;;;20.50;23.60;;;;;;5123794;27;34158;-76
2022/08/20 00:05:38;;;;;;;1.00;0.90;;;20.50;23.60;;;;;;5092815;28;34300;-76
2022/08/20 00:08:05;;;;;;;1.02;0.90;;;20.50;24.00;;;;;;5104535;27;34292;-76
2022/08/20 00:10:34;;;;;;;0.80;0.80;;;20.50;23.60;;;;;;5103174;28;35797;-76
2022/08/20 00:13:01;;;;;;;0.82;0.77;;;20.50;23.80;;;;;;5103146;28;34131;-76
2022/08/20 00:15:30;;;;;;;0.77;0.77;;;20.40;23.40;;;;;;5103201;27;34060;-76
2022/08/20 00:17:57;;;;;;;0.70;0.70;;;20.40;23.70;;;;;;5120734;27;34156;-76
2022/08/20 00:20:28;;;;;;;2.35;1.00;;;20.40;23.60;;;;;;5103491;28;34197;-76
2022/08/20 00:22:55;;;;;;;0.70;0.70;;;20.40;24.00;;;;;;5102981;28;34171;-76
2022/08/20 00:25:22;;;;;;;0.70;0.70;;;20.40;23.30;;;;;;5104246;28;34242;-76
2022/08/20 00:27:49;;;;;;;4.00;1.08;;;20.40;23.80;;;;;;5121452;27;34206;-76
2022/08/20 00:30:15;;;;;;;1.10;1.00;;;20.40;23.80;;;;;;5123873;27;34319;-76
2022/08/20 00:32:51;;;;;;;2.92;0.90;;;20.40;23.60;;;;;;5123408;27;34139;-76
2022/08/20 00:35:20;;;;;;;0.75;0.75;;;20.40;25.30;;;;;;5124772;27;34460;-76
2022/08/20 00:37:47;;;;;;;1.00;0.90;;;20.40;23.70;;;;;;5123711;27;34237;-76
2022/08/20 00:40:18;;;;;;;0.90;0.90;;;20.40;23.90;;;;;;5122889;27;35183;-76
2022/08/20 00:42:50;;;;;;;1.00;0.90;;;20.40;24.20;;;;;;5123255;27;34002;-76
2022/08/20 00:45:19;;;;;;;1.15;0.90;;;20.40;24.50;;;;;;5123180;27;34071;-76
2022/08/20 00:47:46;;;;;;;2.05;0.90;;;20.40;23.90;;;;;;5102626;28;34553;-76
2022/08/20 00:50:17;;;;;;;1.20;0.90;;;20.40;24.20;;;;;;5102585;28;36271;-76
2022/08/20 00:52:47;;;;;;;0.90;0.90;;;20.40;24.90;;;;;;5086077;28;34242;-77
2022/08/20 00:55:15;;;;;;;1.17;1.08;;;20.40;24.40;;;;;;5102979;28;34242;-76
2022/08/20 00:57:45;;;;;;;0.95;0.85;;;20.40;24.40;;;;;;5102893;28;34259;-76
2022/08/20 01:00:18;;;;;;;0.88;0.88;;;20.40;24.80;;;;;;5098972;27;36003;-76
2022/08/20 01:02:46;;;;;;;1.10;1.00;;;20.40;25.10;;;;;;5122748;27;34139;-76
2022/08/20 01:05:12;;;;;;;0.73;0.73;;;20.40;24.60;;;;;;5135677;27;34254;-76
2022/08/20 01:07:40;;;;;;;0.90;0.80;;;20.40;25.10;;;;;;5109802;27;34475;-76
2022/08/20 01:10:13;;;;;;;0.90;0.90;;;20.40;24.80;;;;;;5128060;27;34358;-76
2022/08/20 01:12:43;;;;;;;0.77;0.77;;;20.40;25.30;;;;;;5108711;27;34220;-76
2022/08/20 01:15:14;;;;;;;1.58;0.95;;;20.40;24.70;;;;;;5092811;27;34247;-76
2022/08/20 01:17:45;;;;;;;0.90;0.90;;;20.40;25.10;;;;;;5091989;27;34548;-76
2022/08/20 01:20:16;;;;;;;1.85;0.90;;;20.40;25.30;;;;;;5127238;27;35280;-77
2022/08/20 01:25:52;;;;;;;1.10;1.00;;;20.40;25.10;;;;;;5133429;27;34287;-76
2022/08/20 01:28:22;;;;;;;0.70;0.70;;;20.40;25.80;;;;;;5119607;27;34230;-76
2022/08/20 01:30:49;;;;;;;0.80;0.80;;;20.30;25.20;;;;;;5126046;27;36360;-76
2022/08/20 01:33:18;;;;;;;1.73;0.90;;;20.30;24.80;;;;;;5127442;27;34235;-77
2022/08/20 01:35:44;;;;;;;1.58;0.80;;;20.30;25.10;;;;;;5108906;27;34140;-76
2022/08/20 01:38:11;;;;;;;0.80;0.80;;;20.30;24.70;;;;;;5108956;27;34049;-76
2022/08/20 01:41:13;;;;;;;0.80;0.80;;;20.30;25.10;;;;;;5127128;27;34088;-76
2022/08/20 01:43:40;;;;;;;0.98;0.90;;;20.20;25.90;;;;;;5102595;27;34253;-77
2022/08/20 01:46:09;;;;;;;1.33;1.00;;;20.20;24.40;;;;;;5134861;27;34205;-76
2022/08/20 01:48:37;;;;;;;0.80;0.80;;;20.20;24.60;;;;;;5108623;27;34182;-77
2022/08/20 01:51:09;;;;;;;1.55;0.75;;;20.20;24.60;;;;;;5108416;27;35491;-76
2022/08/20 01:53:40;;;;;;;1.27;0.90;;;20.20;25.10;;;;;;5108628;27;34078;-77
2022/08/20 01:56:13;;;;;;;2.97;1.08;;;20.10;25.10;;;;;;5092050;27;34118;-76
2022/08/20 01:58:42;;;;;;;2.33;0.98;;;20.10;25.70;;;;;;5108116;27;34219;-76
2022/08/20 02:01:23;;;;;;;0.82;0.80;;;20.10;25.40;;;;;;5125792;27;35553;-77
2022/08/20 02:03:49;;;;;;;1.50;0.80;;;20.10;26.90;;;;;;5127918;27;34239;-77
2022/08/20 02:06:16;;;;;;;0.68;0.68;;;20.10;25.40;;;;;;5111930;27;34136;-76
2022/08/20 02:08:42;;;;;;;4.38;1.02;;;20.10;25.30;;;;;;5148065;27;34060;-76
2022/08/20 02:11:09;;;;;;;1.70;0.70;;;20.10;25.10;;;;;;5112360;27;35519;-76
2022/08/20 02:13:35;;;;;;;0.90;0.90;;;20.10;25.50;;;;;;5111919;27;34482;-76
2022/08/20 02:16:01;;;;;;;0.80;0.80;;;20.10;25.20;;;;;;5112575;27;34132;-76
2022/08/20 02:18:27;;;;;;;1.00;1.00;;;20.10;25.60;;;;;;5146989;27;34028;-76
2022/08/20 02:20:53;;;;;;;2.05;0.80;;;20.10;25.40;;;;;;5118802;27;36597;-76
2022/08/20 02:23:19;;;;;;;2.13;0.80;;;20.10;25.70;;;;;;5150448;27;34164;-77
2022/08/20 02:25:46;;;;;;;3.20;1.17;;;20.00;25.30;;;;;;5149878;27;34112;-76
2022/08/20 02:28:15;;;;;;;0.80;0.80;;;20.00;25.70;;;;;;5132839;27;34489;-76
2022/08/20 02:30:45;;;;;;;1.35;0.90;;;19.90;25.70;;;;;;5157622;27;34149;-76
2022/08/20 02:33:13;;;;;;;0.85;0.85;;;19.90;25.50;;;;;;5129158;27;34375;-76
2022/08/20 02:35:41;;;;;;;4.65;0.90;;;19.90;25.80;;;;;;5111618;27;34133;-76
2022/08/20 02:38:09;;;;;;;2.47;0.85;;;19.90;25.80;;;;;;5128687;27;34073;-76
2022/08/20 02:40:36;;;;;;;0.90;0.90;;;19.90;25.70;;;;;;5127994;27;35738;-76
2022/08/20 02:43:03;;;;;;;1.50;1.02;;;19.80;25.50;;;;;;5128209;27;34344;-76
2022/08/20 02:45:35;;;;;;;2.25;1.13;;;19.80;25.80;;;;;;5111146;27;34067;-76
2022/08/20 02:48:02;;;;;;;0.80;0.80;;;19.80;25.70;;;;;;5130185;27;34325;-77
2022/08/20 02:50:29;;;;;;;3.60;1.00;;;19.70;25.60;;;;;;5128679;27;34112;-76
2022/08/20 02:52:55;;;;;;;2.95;0.80;;;19.70;26.00;;;;;;5128280;27;34179;-77
2022/08/20 02:55:22;;;;;;;5.38;1.10;;;19.70;25.50;;;;;;5129046;27;34292;-76
2022/08/20 02:57:48;;;;;;;1.38;0.82;;;19.70;26.10;;;;;;5128685;27;34531;-76
2022/08/20 03:00:19;;;;;;;1.05;0.90;;;19.70;25.70;;;;;;5128092;27;36181;-76
2022/08/20 03:02:45;;;;;;;3.10;0.90;;;19.70;26.10;;;;;;5111684;27;34282;-76
2022/08/20 03:05:13;;;;;;;1.40;0.82;;;19.70;25.70;;;;;;5098667;27;34098;-76
2022/08/20 03:07:44;;;;;;;0.80;0.80;;;19.70;25.90;;;;;;5107524;27;34382;-76
2022/08/20 03:10:11;;;;;;;0.82;0.82;;;19.70;26.30;;;;;;5125779;27;34268;-76
2022/08/20 03:12:37;;;;;;;2.28;0.85;;;19.70;26.20;;;;;;5126135;27;34289;-76
2022/08/20 03:15:05;;;;;;;3.85;1.00;;;19.70;25.90;;;;;;5090762;27;34214;-76
2022/08/20 03:17:31;;;;;;;2.17;0.70;;;19.70;26.20;;;;;;5090941;27;34551;-76
2022/08/20 03:19:57;;;;;;;2.63;1.52;;;19.60;26.00;;;;;;5107264;27;35844;-77
2022/08/20 03:22:22;;;;;;;1.30;1.17;;;19.70;26.10;;;;;;5107899;27;34111;-76
2022/08/20 03:24:48;;;;;;;2.28;1.15;;;19.60;26.30;;;;;;5125848;27;34106;-76
2022/08/20 03:27:14;;;;;;;1.95;1.10;;;19.60;26.20;;;;;;5090589;27;34473;-76
2022/08/20 03:29:40;;;;;;;0.98;0.90;;;19.60;26.10;;;;;;5106722;27;35876;-76
2022/08/20 03:32:06;;;;;;;2.20;0.70;;;19.60;26.10;;;;;;5106139;27;34272;-76
2022/08/20 03:34:33;;;;;;;0.70;0.70;;;19.70;26.10;;;;;;5090098;27;34164;-76
2022/08/20 03:36:59;;;;;;;5.85;0.80;;;19.70;26.30;;;;;;5107457;27;34146;-76
2022/08/20 03:39:25;;;;;;;1.45;0.80;;;19.70;26.30;;;;;;5124976;27;34121;-76
2022/08/20 03:41:51;;;;;;;0.93;0.90;;;19.70;26.30;;;;;;5090675;27;34167;-76
2022/08/20 03:44:17;;;;;;;1.23;1.02;;;19.70;25.90;;;;;;5107902;27;34023;-76
2022/08/20 03:46:43;;;;;;;2.33;0.93;;;19.70;26.20;;;;;;5107377;27;34392;-76
2022/08/20 03:49:09;;;;;;;0.80;0.80;;;19.70;26.10;;;;;;5089967;27;35632;-76
2022/08/20 03:51:35;;;;;;;1.13;0.70;;;19.60;25.90;;;;;;5125335;27;34275;-76
2022/08/20 03:54:01;;;;;;;2.53;1.05;;;19.60;25.80;;;;;;5107283;27;34158;-76
2022/08/20 03:56:27;;;;;;;0.77;0.77;;;19.60;25.80;;;;;;5107087;27;34178;-76
2022/08/20 03:58:54;;;;;;;1.13;1.02;;;19.60;26.30;;;;;;5107042;27;35625;-76
2022/08/20 04:01:20;;;;;;;1.83;1.02;;;19.60;26.60;;;;;;5125368;27;34138;-76
2022/08/20 04:03:46;;;;;;;0.82;0.82;;;19.60;26.00;;;;;;5125334;27;34234;-76
2022/08/20 04:06:12;;;;;;;1.00;1.00;;;19.60;26.10;;;;;;5107299;27;34068;-76
2022/08/20 04:08:39;;;;;;;0.80;0.80;;;19.60;26.20;;;;;;5089692;27;36668;-76
2022/08/20 04:11:05;;;;;;;4.28;1.10;;;19.50;25.90;;;;;;5125198;27;34305;-76
2022/08/20 04:13:31;;;;;;;3.83;1.10;;;19.50;26.30;;;;;;5073231;27;34258;-76
2022/08/20 04:16:01;;;;;;;3.30;1.13;;;19.50;26.30;;;;;;5125124;27;34201;-76
2022/08/20 04:18:27;;;;;;;0.95;0.88;;;19.50;26.40;;;;;;5106634;27;36762;-77
2022/08/20 04:20:53;;;;;;;1.40;0.70;;;19.50;25.90;;;;;;5107043;27;34085;-76
2022/08/20 04:23:20;;;;;;;1.40;0.70;;;19.40;25.90;;;;;;5125073;27;34241;-75
2022/08/20 04:25:47;;;;;;;1.75;0.75;;;19.40;26.10;;;;;;5124483;27;34185;-76
2022/08/20 04:28:24;;;;;;;0.80;0.80;;;19.40;26.30;;;;;;5124493;27;34460;-76
2022/08/20 04:30:51;;;;;;;0.63;0.63;;;19.40;26.50;;;;;;5106614;27;34283;-76
2022/08/20 04:33:18;;;;;;;0.98;0.98;;;19.40;26.00;;;;;;5106763;27;34116;-76
2022/08/20 04:35:44;;;;;;;0.75;0.70;;;19.30;26.00;;;;;;5089634;27;34154;-76
2022/08/20 04:38:17;;;;;;;0.73;0.73;;;19.30;26.10;;;;;;5124783;27;35308;-76
2022/08/20 04:43:29;;;;;;;0.80;0.80;;;19.30;26.60;;;;;;5123817;27;34033;-76
2022/08/20 04:45:57;;;;;;;1.20;0.95;;;19.30;26.50;;;;;;5106709;27;34157;-76
2022/08/20 04:48:26;;;;;;;1.10;1.10;;;19.30;26.60;;;;;;5106409;27;36383;-76
2022/08/20 04:50:52;;;;;;;0.95;0.95;;;19.30;26.60;;;;;;5089948;27;34054;-76
2022/08/20 04:53:22;;;;;;;1.20;1.10;;;19.30;26.70;;;;;;5106537;27;34310;-77
2022/08/20 04:55:49;;;;;;;1.15;0.70;;;19.40;26.80;;;;;;5123772;27;34136;-76
2022/08/20 04:58:20;;;;;;;1.20;0.93;;;19.30;26.40;;;;;;5124506;27;34558;-76
2022/08/20 05:00:48;;;;;;;1.35;1.10;;;19.30;26.60;;;;;;5107281;27;34076;-76
2022/08/20 05:03:16;;;;;;;1.10;1.00;;;19.30;27.10;;;;;;5090312;27;34084;-77
2022/08/20 05:05:43;;;;;;;1.02;0.93;;;19.30;26.80;;;;;;5106724;27;34593;-76
2022/08/20 05:08:11;;;;;;;0.80;0.80;;;19.20;26.60;;;;;;5124440;27;34755;-76
2022/08/20 05:10:37;;;;;;;3.92;0.90;;;19.20;26.40;;;;;;5107666;27;34121;-76
2022/08/20 05:13:04;;;;;;;2.67;1.02;;;19.10;26.20;;;;;;5123707;27;34274;-76
2022/08/20 05:15:30;;;;;;;1.30;1.20;;;19.10;26.20;;;;;;5094521;27;34184;-76
2022/08/20 05:17:59;;;;;;;1.25;1.15;;;19.10;26.40;;;;;;5106878;27;35784;-77
2022/08/20 05:20:29;;;;;;;2.25;1.20;;;19.00;25.90;;;;;;5106435;27;34101;-76
2022/08/20 05:22:55;;;;;;;1.70;1.02;;;19.10;26.40;;;;;;5090669;27;34220;-77
2022/08/20 05:25:21;;;;;;;3.65;1.20;;;19.10;26.30;;;;;;5090244;27;34385;-77
2022/08/20 05:27:47;;;;;;;2.30;1.27;;;19.10;26.00;;;;;;5107079;27;36492;-76
2022/08/20 05:30:13;;;;;;;1.58;0.93;;;19.00;25.70;;;;;;5107022;27;34355;-77
2022/08/20 05:32:39;;;;;;;1.27;1.08;;;18.90;25.80;;;;;;5106824;27;34419;-76
2022/08/20 05:35:08;;;;;;;2.05;1.23;;;18.90;26.00;;;;;;5141560;27;34108;-76
2022/08/20 05:37:36;;;;;;;2.83;1.13;;;18.90;26.10;;;;;;5089237;27;36037;-76
2022/08/20 05:40:09;;;;;;;1.50;1.40;;;18.80;26.30;;;;;;5090405;27;34156;-77
2022/08/20 05:42:36;;;;;;;2.85;1.35;;;18.80;26.20;;;;;;5106910;27;34235;-76
2022/08/20 05:45:03;;;;;;;1.50;1.40;;;18.80;25.80;;;;;;5090917;27;34065;-76
2022/08/20 05:47:30;;;;;;;1.58;1.35;;;18.90;25.90;;;;;;5107463;27;36309;-76
2022/08/20 05:49:56;;;;;;;1.20;1.10;;;18.90;25.40;;;;;;5106767;27;34452;-76
2022/08/20 05:52:22;;;;;;;1.95;1.42;;;18.90;25.40;;;;;;5089280;27;34184;-76
2022/08/20 05:54:48;;;;;;;2.13;1.30;;;19.00;25.50;;;;;;5127750;27;34114;-76
2022/08/20 05:57:18;;;;;;;2.55;1.42;;;19.00;25.20;;;;;;5143905;27;36708;-76
2022/08/20 05:59:45;;;;;;;2.83;1.52;;;19.00;26.00;;;;;;5110490;27;34120;-78
2022/08/20 06:04:52;;;;;;;1.67;1.58;;;19.10;25.40;;;;;;5110889;27;34156;-76
2022/08/20 06:07:18;;;;;;;1.58;1.30;;;19.20;24.90;;;;;;5142847;27;34205;-77
2022/08/20 06:09:44;;;;;;;3.05;1.38;;;19.20;24.80;;;;;;5130751;27;34123;-77
2022/08/20 06:12:10;;;;;;;0.80;0.80;;;19.20;24.80;;;;;;5129639;27;34094;-76
2022/08/20 06:14:36;;;;;;;1.65;1.05;;;19.10;24.40;;;;;;5129761;27;34194;-76
2022/08/20 06:17:06;;;;;;;1.13;0.90;;;19.10;24.20;;;;;;5111737;27;36201;-76
2022/08/20 06:19:33;;;;;;;1.20;1.10;;;19.10;24.10;;;;;;5129386;27;34136;-76
2022/08/20 06:22:00;;;;;;;2.50;1.17;;;19.10;23.90;;;;;;5119798;27;34079;-75
2022/08/20 06:24:26;;;;;;;1.65;0.95;;;19.10;23.50;;;;;;5108295;27;34719;-77
2022/08/20 06:27:02;;;;;;;1.08;1.02;;;19.10;23.10;;;;;;5108677;27;36086;-77
2022/08/20 06:29:29;;;;;;;1.33;0.90;;;19.00;21.20;;;;;;5147318;27;34175;-76
2022/08/20 06:31:55;;;;;;;3.63;1.33;;;19.00;22.60;;;;;;5129306;27;34137;-76
2022/08/20 06:34:23;;;;;;;1.55;1.27;;;19.00;22.50;;;;;;5129019;27;33981;-76
2022/08/20 06:36:49;;;;;;;1.88;1.15;;;18.90;22.40;;;;;;5128746;27;36498;-75
2022/08/20 06:39:15;;;;;;;3.33;1.15;;;18.90;22.20;;;;;;5111939;27;34137;-77
2022/08/20 06:41:41;;;;;;;1.42;1.10;;;19.00;21.90;;;;;;5128358;27;34389;-76
2022/08/20 06:44:07;;;;;;;1.48;0.93;;;19.40;21.00;;;;;;5129552;27;34226;-76
2022/08/20 06:46:35;;;;;;;2.20;0.90;;;20.00;20.10;;;;;;5111336;27;35801;-76
2022/08/20 06:49:02;;;;;;;1.70;1.40;;;20.40;19.10;;;;;;5128653;27;34119;-75
2022/08/20 06:51:29;;;;;;;1.42;1.00;;;21.10;18.10;;;;;;5128475;27;34236;-76
2022/08/20 06:53:55;;;;;;;2.30;1.10;;;21.40;17.30;;;;;;5120296;27;34334;-77
2022/08/20 06:56:21;;;;;;;3.42;1.20;;;21.70;16.20;;;;;;5127968;27;35826;-76
2022/08/20 06:58:48;;;;;;;2.85;1.20;;;22.00;16.10;;;;;;5127628;27;34285;-75
2022/08/20 07:01:19;;;;;;;1.80;1.00;;;22.30;15.60;;;;;;5107717;27;34156;-76
2022/08/20 07:03:48;;;;;;;5.50;1.33;;;22.30;15.40;;;;;;5125928;27;34397;-75
2022/08/20 07:06:15;;;;;;;4.50;1.15;;;22.50;15.10;;;;;;5108468;27;34221;-75
2022/08/20 07:08:42;;;;;;;3.30;1.20;;;22.50;15.00;;;;;;5107263;27;34092;-76
2022/08/20 07:11:08;;;;;;;4.22;1.17;;;22.40;15.00;;;;;;5108059;27;34317;-75
2022/08/20 07:13:36;;;;;;;3.72;1.50;;;22.10;15.20;;;;;;5125743;27;34156;-74
2022/08/20 07:16:04;;;;;;;2.47;1.10;;;21.80;15.40;;;;;;5125987;27;34903;-74
2022/08/20 07:18:31;;;;;;;3.40;1.15;;;21.70;15.60;;;;;;5103544;28;34195;-77
2022/08/20 07:20:57;;;;;;;3.88;1.30;;;21.70;15.90;;;;;;5106164;27;34809;-74
2022/08/20 07:23:25;;;;;;;6.13;1.35;;;21.80;15.90;;;;;;5107148;27;34334;-76
2022/08/20 07:25:55;;;;;;;7.45;1.40;;;21.70;15.40;;;;;;5113997;27;34401;-78
2022/08/20 07:28:27;;;;;;;3.33;1.17;;;21.70;13.10;;;;;;5125731;27;34276;-73
2022/08/20 07:33:39;;;;;;;2.30;0.95;;;21.90;15.40;;;;;;5125129;27;34044;-74
2022/08/20 07:36:06;;;;;;;6.13;1.30;;;22.20;15.40;;;;;;5089934;27;36763;-73
2022/08/20 07:38:57;;;;;;;2.92;1.38;;;22.10;15.30;;;;;;5125255;27;35448;-74
2022/08/20 07:41:24;;;;;;;4.88;1.23;;;22.00;12.90;;;;;;5097215;27;34849;-75
2022/08/20 07:43:50;;;;;;;3.13;1.27;;;21.90;15.40;;;;;;5125535;27;34230;-75
2022/08/20 07:46:26;;;;;;;2.92;1.63;;;21.70;15.30;;;;;;5140405;27;34960;-74
2022/08/20 07:48:52;;;;;;;3.63;1.10;;;21.60;15.00;;;;;;5115040;27;34196;-74
2022/08/20 07:51:21;;;;;;;1.08;0.98;;;21.60;15.60;;;;;;5110815;27;34631;-74
2022/08/20 07:53:48;;;;;;;4.75;1.20;;;21.60;15.50;;;;;;5144109;27;34367;-74
2022/08/20 07:56:18;;;;;;;2.45;1.30;;;21.50;15.80;;;;;;5153018;27;34074;-74
2022/08/20 07:58:48;;;;;;;3.80;1.13;;;21.50;15.60;;;;;;5147912;27;34188;-74
2022/08/20 08:01:16;;;;;;;5.85;1.10;;;21.40;15.60;;;;;;5148452;27;34324;-75
2022/08/20 08:03:42;;;;;;;2.55;1.38;;;21.40;15.90;;;;;;5167028;27;34035;-73
2022/08/20 08:06:08;;;;;;;3.47;1.35;;;21.30;16.00;;;;;;5130672;27;36035;-73
2022/08/20 08:08:35;;;;;;;3.22;1.40;;;21.30;16.00;;;;;;5166045;27;34184;-75
2022/08/20 08:11:03;;;;;;;1.80;1.10;;;21.30;15.50;;;;;;5123117;27;34424;-76
2022/08/20 08:13:34;;;;;;;5.53;1.30;;;21.30;14.90;;;;;;5164329;27;34693;-74
2022/08/20 08:16:03;;;;;;;3.63;1.20;;;21.30;15.70;;;;;;5147507;27;35371;-74
2022/08/20 08:18:37;;;;;;;2.08;1.27;;;21.30;15.60;;;;;;5128635;27;34674;-75
2022/08/20 08:21:05;;;;;;;1.33;1.15;;;21.30;15.30;;;;;;5146865;27;34477;-75
2022/08/20 08:23:33;;;;;;;3.38;1.50;;;21.50;15.30;;;;;;5131213;27;33830;-77
2022/08/20 08:26:00;;;;;;;3.10;1.40;;;21.50;15.20;;;;;;5142039;27;36465;-75
2022/08/20 08:28:28;;;;;;;1.45;1.20;;;21.60;15.20;;;;;;5159485;27;34240;-76
2022/08/20 08:30:55;;;;;;;2.58;1.30;;;21.70;15.00;;;;;;5158709;27;34413;-75
2022/08/20 08:33:27;;;;;;;4.88;1.58;;;21.80;15.00;;;;;;5163588;27;34484;-76
2022/08/20 08:35:56;;;;;;;2.28;1.35;;;21.90;14.80;;;;;;5144354;27;35761;-74
2022/08/20 08:38:24;;;;;;;3.17;1.60;;;22.00;14.80;;;;;;5144770;27;34241;-75
2022/08/20 08:40:53;;;;;;;1.63;1.20;;;22.10;14.80;;;;;;5128350;27;34315;-74
2022/08/20 08:43:23;;;;;;;2.42;1.42;;;22.20;14.70;;;;;;5127870;27;34466;-74
2022/08/20 08:46:00;;;;;;;2.47;1.50;;;22.20;14.70;;;;;;5144795;27;36818;-75
2022/08/20 08:48:34;;;;;;;3.47;1.40;;;22.30;14.10;;;;;;5164266;27;34345;-77
2022/08/20 08:51:03;;;;;;;2.22;1.13;;;22.50;14.80;;;;;;5116987;27;34099;-75
2022/08/20 08:53:36;;;;;;;2.30;1.58;;;22.60;14.50;;;;;;5125333;27;34256;-76
2022/08/20 08:56:04;;;;;;;5.38;1.67;;;22.60;13.90;;;;;;5117603;27;34414;-75
2022/08/20 08:58:32;;;;;;;3.78;1.55;;;22.70;14.20;;;;;;5124664;27;34317;-77
2022/08/20 09:01:02;;;;;;;2.20;1.48;;;22.70;14.20;;;;;;5125091;27;34537;-75
2022/08/20 09:03:32;;;;;;;2.28;1.45;;;22.90;13.70;;;;;;5122478;27;34083;-75
2022/08/20 09:06:01;;;;;;;1.67;1.30;;;22.90;13.40;;;;;;5127222;27;36376;-76
2022/08/20 09:08:35;;;;;;;2.42;1.30;;;22.90;13.50;;;;;;5127027;27;34222;-74
2022/08/20 09:11:07;;;;;;;2.60;1.40;;;23.00;13.20;;;;;;5111185;27;34449;-75
2022/08/20 09:13:33;;;;;;;2.65;1.50;;;23.00;13.10;;;;;;5127529;27;34315;-75
2022/08/20 09:15:59;;;;;;;4.15;2.40;;;23.00;13.60;;;;;;5144953;27;35424;-75
2022/08/20 09:18:26;;;;;;;3.90;1.60;;;22.90;13.50;;;;;;5145510;27;34049;-74
2022/08/20 09:20:52;;;;;;;4.00;1.55;;;23.00;13.50;;;;;;5127464;27;34254;-75
2022/08/20 09:23:18;;;;;;;4.25;1.60;;;23.10;13.60;;;;;;5145918;27;34101;-74
2022/08/20 09:25:44;;;;;;;3.35;1.67;;;23.10;13.60;;;;;;5126013;27;34897;-76
2022/08/20 09:28:10;;;;;;;2.70;1.65;;;23.10;13.40;;;;;;5144239;27;33819;-75
2022/08/20 09:30:36;;;;;;;2.40;1.45;;;23.00;13.20;;;;;;5139280;27;34220;-75
2022/08/20 09:33:02;;;;;;;1.52;1.40;;;23.00;13.40;;;;;;5114516;27;34022;-76
2022/08/20 09:35:28;;;;;;;3.30;2.25;;;22.80;13.20;;;;;;5132166;27;34968;-75
2022/08/20 09:37:54;;;;;;;1.48;1.30;;;22.90;13.40;;;;;;5123157;27;33800;-74
2022/08/20 09:40:21;;;;;;;4.03;1.70;;;22.90;13.50;;;;;;5110111;27;34438;-74
2022/08/20 09:42:50;;;;;;;4.10;1.50;;;23.20;13.50;;;;;;5129156;27;34391;-74
2022/08/20 09:45:17;;;;;;;7.25;1.75;;;23.50;12.60;;;;;;5112558;27;35565;-76
2022/08/20 09:47:43;;;;;;;5.30;1.70;;;23.60;12.70;;;;;;5109739;27;34131;-77
2022/08/20 09:50:09;;;;;;;2.95;1.90;;;24.10;12.60;;;;;;5110004;27;34001;-76
2022/08/20 09:52:42;;;;;;;2.60;1.38;;;24.30;12.20;;;;;;5146798;27;34054;-74
2022/08/20 09:55:23;;;;;;;3.03;1.20;;;24.40;11.60;;;;;;5139856;27;35930;-75
2022/08/20 09:57:50;;;;;;;7.00;1.90;;;24.50;11.70;;;;;;5132682;27;34146;-75
2022/08/20 10:00:18;;;;;;;2.78;1.45;;;24.50;12.00;;;;;;5169430;27;34043;-75
2022/08/20 10:02:44;;;;;;;7.82;2.15;;;24.50;11.90;;;;;;5151657;27;34077;-75
2022/08/20 10:05:11;;;;;;;4.82;2.13;;;24.50;12.00;;;;;;5151299;27;36617;-77
2022/08/20 10:07:38;;;;;;;2.38;1.42;;;24.60;11.90;;;;;;5150648;27;34325;-76
2022/08/20 10:10:06;;;;;;;4.25;1.73;;;24.90;11.30;;;;;;5169981;27;34088;-74
2022/08/20 10:12:32;;;;;;;2.42;1.50;;;25.10;11.00;;;;;;5151302;27;34091;-76
2022/08/20 10:14:58;;;;;;;4.28;2.05;;;25.30;11.00;;;;;;5149815;27;35512;-75
2022/08/20 10:17:24;;;;;;;3.42;1.63;;;25.30;10.50;;;;;;5151332;27;34063;-77
2022/08/20 10:19:50;;;;;;;3.53;1.55;;;25.40;10.40;;;;;;5150943;27;34204;-75
2022/08/20 10:22:16;;;;;;;2.58;1.50;;;25.40;10.20;;;;;;5135000;27;34217;-76
2022/08/20 10:24:42;;;;;;;3.13;1.45;;;25.60;9.80;;;;;;5151222;27;35468;-77
2022/08/20 10:27:08;;;;;;;1.52;1.42;;;25.90;9.60;;;;;;5133738;27;34451;-75
2022/08/20 10:29:34;;;;;;;2.90;1.65;;;26.20;9.50;;;;;;5169511;27;34074;-77
2022/08/20 10:32:11;;;;;;;1.80;1.15;;;26.20;9.20;;;;;;5170044;27;34261;-75
2022/08/20 10:34:39;;;;;;;2.83;1.40;;;26.30;6.40;;;;;;5150621;27;35767;-78
2022/08/20 10:37:05;;;;;;;3.55;1.60;;;26.10;8.90;;;;;;5133976;27;34179;-75
2022/08/20 10:39:31;;;;;;;4.40;1.90;;;26.10;8.80;;;;;;5151879;27;34058;-75
2022/08/20 10:41:57;;;;;;;2.70;1.63;;;26.10;8.60;;;;;;5146832;27;34067;-75
2022/08/20 10:44:23;;;;;;;4.03;1.30;;;25.90;8.20;;;;;;5135995;27;36688;-75
2022/08/20 10:46:49;;;;;;;6.03;1.52;;;26.00;8.20;;;;;;5169332;27;34182;-75
2022/08/20 10:49:15;;;;;;;5.65;1.42;;;26.00;8.30;;;;;;5169244;27;34141;-77
2022/08/20 10:51:41;;;;;;;3.42;1.35;;;26.00;8.10;;;;;;5150470;27;34445;-77
2022/08/20 10:54:07;;;;;;;5.53;1.80;;;25.90;7.80;;;;;;5150376;27;35514;-77
2022/08/20 10:56:32;;;;;;;11.38;1.45;;;25.80;7.70;;;;;;5150724;27;34082;-76
2022/08/20 10:58:58;;;;;;;3.28;1.30;;;26.00;7.80;;;;;;5169352;27;34274;-76
2022/08/20 11:01:24;;;;;;;6.78;1.20;;;26.30;7.40;;;;;;5132992;27;34403;-76
2022/08/20 11:03:50;;;;;;;5.03;1.55;;;26.70;6.80;;;;;;5169425;27;34515;-75
2022/08/20 11:06:16;;;;;;;1.83;1.30;;;26.90;6.00;;;;;;5144799;27;34195;-75
2022/08/20 11:08:42;;;;;;;5.43;1.27;;;27.00;6.30;;;;;;5116982;27;34278;-75
2022/08/20 11:11:08;;;;;;;3.17;1.38;;;26.90;5.50;;;;;;5147487;27;34535;-75
2022/08/20 11:13:35;;;;;;;5.50;1.73;;;26.60;5.40;;;;;;5149942;27;36028;-76
2022/08/20 11:16:02;;;;;;;4.00;1.23;;;26.50;5.70;;;;;;5120237;27;34240;-77
2022/08/20 11:18:29;;;;;;;2.30;1.25;;;26.60;5.10;;;;;;5136425;27;34364;-77
2022/08/20 11:20:56;;;;;;;7.72;1.45;;;26.90;4.80;;;;;;5118479;27;34044;-77
2022/08/20 11:23:22;;;;;;;5.35;1.52;;;27.20;4.90;;;;;;5126028;27;35062;-74
2022/08/20 11:25:48;;;;;;;3.60;1.38;;;27.50;4.50;;;;;;5104836;27;34150;-77
2022/08/20 11:28:14;;;;;;;2.97;1.20;;;27.50;4.30;;;;;;5121196;27;34258;-76
2022/08/20 11:30:40;;;;;;;3.03;1.17;;;27.60;3.80;;;;;;5146102;27;34117;-76
2022/08/20 11:33:07;;;;;;;8.57;1.23;;;27.90;3.90;;;;;;5146302;27;35881;-77
2022/08/20 11:35:34;;;;;;;5.00;1.45;;;28.10;3.70;;;;;;5146728;27;34114;-76
2022/08/20 11:38:01;;;;;;;3.97;1.30;;;28.40;2.90;;;;;;5146217;27;34052;-78
2022/08/20 11:40:29;;;;;;;2.60;1.00;;;28.50;2.80;;;;;;5146165;27;34516;-76
2022/08/20 11:42:55;;;;;;;3.58;1.20;;;28.60;2.70;;;;;;5146892;27;34144;-76
2022/08/20 11:45:21;;;;;;;5.25;1.20;;;28.30;2.60;;;;;;5128888;27;34714;-76
2022/08/20 11:47:47;;;;;;;2.78;1.40;;;28.10;2.30;;;;;;5132167;27;34280;-75
2022/08/20 11:50:17;;;;;;;2.08;1.27;;;28.00;2.20;;;;;;5149959;27;33987;-77
2022/08/20 11:52:43;;;;;;;3.53;1.10;;;28.00;1.00;;;;;;5122506;27;36730;-75
2022/08/20 11:55:12;;;;;;;3.92;1.42;;;28.30;1.50;;;;;;5150122;27;34288;-75
2022/08/20 11:57:43;;;;;;;2.30;0.93;;;28.40;1.60;;;;;;5132401;27;34372;-77
2022/08/20 12:00:15;;;;;;;3.17;1.30;;;28.70;1.00;;;;;;5150833;27;34267;-75
2022/08/20 12:02:50;;;;;;;2.17;1.20;;;28.90;1.00;;;;;;5151355;27;34165;-75
2022/08/20 12:05:18;;;;;;;3.78;1.30;;;29.10;1.00;;;;;;5142613;27;34625;-77
2022/08/20 12:07:44;;;;;;;3.72;1.08;;;29.20;1.00;;;;;;5144240;27;34189;-76
2022/08/20 12:10:11;;;;;;;2.53;1.15;;;29.30;1.00;;;;;;5129321;27;34029;-78
2022/08/20 12:12:38;;;;;;;4.75;0.88;;;29.50;1.00;;;;;;5126074;27;35749;-77
2022/08/20 12:15:06;;;;;;;2.72;1.15;;;29.70;1.00;;;;;;5141936;27;34182;-77
2022/08/20 12:17:32;;;;;;;3.55;1.10;;;29.80;1.00;;;;;;5149012;27;34436;-76
2022/08/20 12:20:01;;;;;;;5.10;1.67;;;29.60;1.00;;;;;;5149917;27;34450;-75
2022/08/20 12:22:27;;;;;;;3.63;1.15;;;29.50;1.00;;;;;;5167645;27;34198;-77
2022/08/20 12:24:54;;;;;;;3.95;1.33;;;29.40;1.00;;;;;;5150210;27;34322;-76
2022/08/20 12:27:24;;;;;;;4.03;2.30;;;29.40;1.00;;;;;;5148074;27;34500;-76
2022/08/20 12:30:09;;;;;;;2.72;1.25;;;29.40;1.00;;;;;;5144616;27;35654;-77
2022/08/20 12:32:35;;;;;;;4.75;1.40;;;29.40;1.00;;;;;;5154802;27;34968;-77
2022/08/20 12:35:02;;;;;;;8.55;1.42;;;29.50;1.00;;;;;;5127390;27;34933;-76
2022/08/20 12:37:30;;;;;;;1.90;1.35;;;29.60;1.00;;;;;;5147715;27;34081;-76
2022/08/20 12:39:58;;;;;;;2.78;1.35;;;29.60;1.00;;;;;;5148323;27;34110;-74
2022/08/20 12:42:25;;;;;;;2.00;1.00;;;29.80;1.00;;;;;;5149940;27;34567;-74
2022/08/20 12:44:51;;;;;;;6.45;1.27;;;29.80;1.00;;;;;;5149170;27;34305;-77
2022/08/20 12:47:24;;;;;;;4.75;1.52;;;29.90;1.00;;;;;;5167099;27;34238;-74
2022/08/20 12:49:55;;;;;;;5.22;1.60;;;29.80;1.00;;;;;;5132660;27;34208;-77
2022/08/20 12:52:22;;;;;;;4.13;1.05;;;29.70;1.00;;;;;;5148314;27;35760;-74
2022/08/20 12:54:49;;;;;;;6.10;1.70;;;29.60;1.00;;;;;;5127895;27;34294;-76
2022/08/20 12:57:27;;;;;;;2.92;1.15;;;29.70;1.00;;;;;;5145869;27;34233;-76
2022/08/20 12:59:56;;;;;;;1.98;1.30;;;29.70;1.00;;;;;;5143905;27;34461;-77
2022/08/20 13:02:22;;;;;;;4.25;1.70;;;29.70;1.00;;;;;;5147658;27;35642;-74